Here is the Quick Look data you requested

The Data originates at the National Weather Service, and is made available here by the UAlbany Department of Atmospheric and Environmental Sciences

Surface Observations

KOXB 241153Z AUTO 24007KT 10SM CLR 19/14 A2981 RMK AO2 SLP094 T01890144 10194
 20167 53013=
KOXB 241253Z AUTO 25006KT 10SM CLR 21/14 A2982 RMK AO2 SLP096 T02060144=
KOXB 241353Z AUTO 30005KT 10SM CLR 22/15 A2982 RMK AO2 SLP098 T02220150=
KOXB 241453Z AUTO 34009G15KT 10SM CLR 24/14 A2983 RMK AO2 SLP100 T02440144
 52006=
KOXB 241553Z AUTO 31009KT 10SM CLR 24/14 A2983 RMK AO2 SLP100 T02440139=
KOXB 241653Z AUTO 34012G19KT 10SM CLR 24/13 A2983 RMK AO2 SLP100 T02390128=
KOXB 241753Z AUTO 34012G18KT 10SM CLR 24/09 A2982 RMK AO2 SLP099 T02440089
 10244 20189 58001=
KOXB 241853Z AUTO 28010G22KT 10SM CLR 26/07 A2982 RMK AO2 PK WND 28026/1830
 SLP096 T02560067=
KOXB 241953Z AUTO 31010G16KT 10SM CLR 26/04 A2981 RMK AO2 SLP093 T02560039=
KOXB 242053Z AUTO 31007G15KT 10SM CLR 24/04 A2982 RMK AO2 SLP097 T02390039
 55001=
KOXB 242153Z AUTO 31007KT 10SM CLR 23/05 A2984 RMK AO2 SLP103 T02280050=
KOXB 242253Z AUTO 31005KT 10SM CLR 21/05 A2984 RMK AO2 SLP104 T02110050=
KOXB 242353Z AUTO 00000KT 10SM CLR 19/05 A2985 RMK AO2 SLP108 T01890050 10261
 20183 51010=
KOXB 250053Z AUTO 00000KT 10SM CLR 15/08 A2986 RMK AO2 SLP112 T01500078=
KOXB 250153Z AUTO 00000KT 10SM CLR 14/08 A2988 RMK AO2 SLP118 T01390078=
KOXB 250253Z AUTO 24003KT 10SM CLR 13/09 A2989 RMK AO2 SLP120 T01330089 51013=
KOXB 250353Z AUTO 00000KT 10SM CLR 12/09 A2990 RMK AO2 SLP123 T01170094=
KOXB 250453Z AUTO 33003KT 10SM FEW080 BKN100 13/10 A2990 RMK AO2 SLP124
 T01330100 402610111=
KOXB 250553Z AUTO 00000KT 10SM BKN070 BKN090 14/10 A2990 RMK AO2 SLP125
 T01440100 10189 20111 51005=
KOXB 250653Z AUTO 00000KT 10SM FEW070 13/10 A2989 RMK AO2 SLP121 T01280100=
KOXB 250753Z AUTO 00000KT 10SM BKN120 13/11 A2989 RMK AO2 SLP120 T01280106=
KOXB 250853Z AUTO 00000KT 10SM FEW110 12/11 A2989 RMK AO2 SLP119 T01220111
 56005=
KOXB 250953Z AUTO 00000KT 10SM SCT100 12/11 A2991 RMK AO2 SLP126 T01220111=
KOXB 251053Z AUTO 00000KT 10SM OVC100 13/12 A2992 RMK AO2 SLP130 T01330117=
KOXB 251153Z AUTO 00000KT 10SM BKN090 15/13 A2993 RMK AO2 SLP134 T01500133
 10150 20117 51015=
KOXB 251253Z AUTO 13004KT 10SM SCT090 OVC110 17/14 A2993 RMK AO2 SLP133
 T01670139=
KOXB 251353Z AUTO 13005KT 10SM BKN080 18/13 A2993 RMK AO2 SLP135 T01830133=
KOXB 251453Z AUTO 08005KT 10SM SCT070 18/13 A2995 RMK AO2 SLP140 T01780128
 53006=
KOXB 251553Z AUTO 07008KT 10SM CLR 17/12 A2994 RMK AO2 SLP138 T01670117=
KOXB 251653Z AUTO 08008KT 10SM FEW050 SCT120 14/12 A2992 RMK AO2 SLP131
 T01440117=
KOXB 251753Z AUTO 07006KT 10SM CLR 15/12 A2991 RMK AO2 SLP128 T01500117 10183
 20144 58012=